Other Surface Observations
Issued by NWS Great Falls, MT

Home | Current Version | Previous Version | Text Only | Print | Product List | Glossary On
Versions: 1 2 3 4 5 6 7 8 9 10 11 12 13 14 15 16 17 18 19 20 21 22 23 24 25 26 27 28 29 30 31 32 33 34 35 36 37 38 39 40 41 42 43 44 45 46 47 48 49 50
000
SXUS55 KTFX 241444
OSOTFX

AREA AWOS OBSERVATIONS
NATIONAL WEATHER SERVICE GREAT FALLS MT
0844 AM MDT Tue Apr 24 2018

METAR K3U3 241443Z AUTO 14004KT 02/M03 A3050
METAR KS71 241443Z AUTO 12000KT 10SM 05/00 A3047
METAR K38S 241444Z AUTO 15007KT 10SM 01/M02 A3051
METAR K6S5 241444Z AUTO 15004 10SM 02/M03 A3050
METAR K1S3 241443Z AUTO 24004KT 04/02 A3052
METAR KPWD 241443Z AUTO 18000KT 10SM 07/M02 A3048
METAR KPO1 241443Z AUTO 19000KT  10SM 04/M03 A3051



USA.gov is the U.S. government's official web portal to all federal, state and local government web resources and services.